sensor_id;sensor_type;location;lat;lon;timestamp;pressure;altitude;pressure_sealevel;temperature;humidity
12215;BME280;6170;42.206;24.142;2023-03-24T09:57:02;98919.00;;;18.29;60.18
12215;BME280;6170;42.206;24.142;2023-03-24T09:59:34;98917.34;;;18.28;55.99
12215;BME280;6170;42.206;24.142;2023-03-24T10:02:09;98883.34;;;17.70;58.12
12215;BME280;6170;42.206;24.142;2023-03-24T10:04:37;98911.63;;;18.08;56.50
12215;BME280;6170;42.206;24.142;2023-03-24T10:07:08;98904.31;;;18.47;57.84
12215;BME280;6170;42.206;24.142;2023-03-24T10:09:39;98890.88;;;18.95;57.52
12215;BME280;6170;42.206;24.142;2023-03-24T10:12:22;98891.94;;;18.94;57.40
12215;BME280;6170;42.206;24.142;2023-03-24T10:15:01;98910.97;;;19.16;57.19
12215;BME280;6170;42.206;24.142;2023-03-24T10:17:38;98881.66;;;18.74;57.70
12215;BME280;6170;42.206;24.142;2023-03-24T10:20:14;98897.09;;;18.52;58.68
12215;BME280;6170;42.206;24.142;2023-03-24T10:22:53;98889.22;;;18.94;57.68
12215;BME280;6170;42.206;24.142;2023-03-24T10:25:25;98884.22;;;19.08;56.67
12215;BME280;6170;42.206;24.142;2023-03-24T10:27:59;98886.66;;;18.61;55.73
12215;BME280;6170;42.206;24.142;2023-03-24T10:30:31;98882.47;;;18.53;55.64
12215;BME280;6170;42.206;24.142;2023-03-24T10:32:59;98876.25;;;18.74;55.55
12215;BME280;6170;42.206;24.142;2023-03-24T10:35:29;98878.94;;;18.96;55.62
12215;BME280;6170;42.206;24.142;2023-03-24T10:37:59;98858.66;;;19.04;55.85
12215;BME280;6170;42.206;24.142;2023-03-24T10:40:30;98878.81;;;18.86;56.24
12215;BME280;6170;42.206;24.142;2023-03-24T10:43:01;98869.06;;;19.12;57.43
12215;BME280;6170;42.206;24.142;2023-03-24T10:45:32;98865.81;;;18.66;55.34
12215;BME280;6170;42.206;24.142;2023-03-24T10:48:01;98857.81;;;19.25;55.60
12215;BME280;6170;42.206;24.142;2023-03-24T10:50:30;98862.06;;;19.43;54.43
12215;BME280;6170;42.206;24.142;2023-03-24T10:52:58;98860.88;;;19.34;55.40
12215;BME280;6170;42.206;24.142;2023-03-24T10:55:28;98855.03;;;19.20;54.87
12215;BME280;6170;42.206;24.142;2023-03-24T10:57:59;98847.06;;;19.40;54.58
12215;BME280;6170;42.206;24.142;2023-03-24T11:00:28;98839.50;;;18.89;54.51
12215;BME280;6170;42.206;24.142;2023-03-24T11:02:58;98845.03;;;19.25;53.88
12215;BME280;6170;42.206;24.142;2023-03-24T11:05:27;98843.00;;;19.38;53.32
12215;BME280;6170;42.206;24.142;2023-03-24T11:08:09;98810.81;;;18.98;52.65
12215;BME280;6170;42.206;24.142;2023-03-24T11:10:38;98826.81;;;19.26;51.08
12215;BME280;6170;42.206;24.142;2023-03-24T11:13:16;98825.47;;;19.50;51.41
12215;BME280;6170;42.206;24.142;2023-03-24T11:15:53;98812.06;;;19.76;54.31
12215;BME280;6170;42.206;24.142;2023-03-24T11:18:21;98795.44;;;19.40;54.64
12215;BME280;6170;42.206;24.142;2023-03-24T11:20:52;98799.22;;;19.66;52.60
12215;BME280;6170;42.206;24.142;2023-03-24T11:23:26;98782.84;;;19.61;51.92
12215;BME280;6170;42.206;24.142;2023-03-24T11:26:01;98828.72;;;19.84;53.41
12215;BME280;6170;42.206;24.142;2023-03-24T11:28:35;98787.25;;;19.67;50.66
12215;BME280;6170;42.206;24.142;2023-03-24T11:31:06;98774.97;;;19.59;52.21
12215;BME280;6170;42.206;24.142;2023-03-24T11:33:40;98821.41;;;20.32;51.55
12215;BME280;6170;42.206;24.142;2023-03-24T11:36:38;98760.28;;;19.55;50.74
12215;BME280;6170;42.206;24.142;2023-03-24T11:39:13;98769.97;;;19.78;50.87
12215;BME280;6170;42.206;24.142;2023-03-24T11:41:43;98765.88;;;19.81;49.88
12215;BME280;6170;42.206;24.142;2023-03-24T11:44:19;98763.19;;;20.33;50.55
12215;BME280;6170;42.206;24.142;2023-03-24T11:46:50;98750.81;;;20.10;48.90
12215;BME280;6170;42.206;24.142;2023-03-24T11:49:20;98753.84;;;20.18;49.02
12215;BME280;6170;42.206;24.142;2023-03-24T11:51:50;98743.88;;;19.87;50.71
12215;BME280;6170;42.206;24.142;2023-03-24T11:54:21;98743.34;;;19.85;49.94
12215;BME280;6170;42.206;24.142;2023-03-24T11:56:50;98732.88;;;20.09;50.41
12215;BME280;6170;42.206;24.142;2023-03-24T11:59:26;98734.66;;;19.88;48.35
12215;BME280;6170;42.206;24.142;2023-03-24T12:02:00;98714.94;;;20.18;51.60
12215;BME280;6170;42.206;24.142;2023-03-24T12:04:40;98717.28;;;20.51;49.71
12215;BME280;6170;42.206;24.142;2023-03-24T12:07:37;98732.72;;;20.31;50.90
12215;BME280;6170;42.206;24.142;2023-03-24T12:10:18;98726.13;;;20.22;47.62
12215;BME280;6170;42.206;24.142;2023-03-24T12:12:53;98719.38;;;19.77;49.16
12215;BME280;6170;42.206;24.142;2023-03-24T12:15:35;98714.69;;;20.19;47.72
12215;BME280;6170;42.206;24.142;2023-03-24T12:18:23;98713.97;;;20.34;49.81
12215;BME280;6170;42.206;24.142;2023-03-24T12:20:58;98704.88;;;20.13;49.53
12215;BME280;6170;42.206;24.142;2023-03-24T12:23:35;98705.00;;;20.44;49.87
12215;BME280;6170;42.206;24.142;2023-03-24T12:26:15;98713.97;;;20.39;49.91
12215;BME280;6170;42.206;24.142;2023-03-24T12:28:55;98703.44;;;20.93;50.63
12215;BME280;6170;42.206;24.142;2023-03-24T12:34:40;98724.38;;;20.57;48.86
12215;BME280;6170;42.206;24.142;2023-03-24T12:37:24;98686.41;;;20.26;47.50
12215;BME280;6170;42.206;24.142;2023-03-24T12:40:06;98693.19;;;20.23;50.07
12215;BME280;6170;42.206;24.142;2023-03-24T12:42:39;98683.53;;;20.52;49.74
12215;BME280;6170;42.206;24.142;2023-03-24T12:45:19;98681.19;;;20.09;48.01
12215;BME280;6170;42.206;24.142;2023-03-24T12:47:59;98717.97;;;20.22;50.38
12215;BME280;6170;42.206;24.142;2023-03-24T12:50:44;98670.22;;;20.66;47.81
12215;BME280;6170;42.206;24.142;2023-03-24T12:53:38;98661.09;;;20.20;48.78
12215;BME280;6170;42.206;24.142;2023-03-24T12:56:12;98669.91;;;20.52;49.89
12215;BME280;6170;42.206;24.142;2023-03-24T12:58:43;98686.47;;;20.31;47.38
12215;BME280;6170;42.206;24.142;2023-03-24T13:01:17;98670.28;;;20.04;47.85
12215;BME280;6170;42.206;24.142;2023-03-24T13:03:47;98664.19;;;20.44;49.95
12215;BME280;6170;42.206;24.142;2023-03-24T13:06:20;98666.94;;;20.64;47.50
12215;BME280;6170;42.206;24.142;2023-03-24T13:08:58;98663.91;;;20.45;45.58
12215;BME280;6170;42.206;24.142;2023-03-24T13:11:35;98660.94;;;20.72;46.85
12215;BME280;6170;42.206;24.142;2023-03-24T13:14:11;98655.41;;;20.27;46.84
12215;BME280;6170;42.206;24.142;2023-03-24T13:16:41;98648.13;;;20.52;46.07
12215;BME280;6170;42.206;24.142;2023-03-24T13:19:17;98683.28;;;20.64;46.85
12215;BME280;6170;42.206;24.142;2023-03-24T13:21:46;98681.91;;;20.72;46.93
12215;BME280;6170;42.206;24.142;2023-03-24T13:24:16;98639.84;;;20.12;48.43
12215;BME280;6170;42.206;24.142;2023-03-24T13:26:51;98640.94;;;20.16;48.07
12215;BME280;6170;42.206;24.142;2023-03-24T13:29:43;98629.81;;;20.28;48.33
12215;BME280;6170;42.206;24.142;2023-03-24T13:32:20;98631.78;;;20.47;47.92
12215;BME280;6170;42.206;24.142;2023-03-24T13:34:55;98634.75;;;20.41;46.45
12215;BME280;6170;42.206;24.142;2023-03-24T13:37:28;98635.72;;;19.94;46.36
12215;BME280;6170;42.206;24.142;2023-03-24T13:40:00;98635.75;;;20.09;46.78
12215;BME280;6170;42.206;24.142;2023-03-24T13:42:31;98664.81;;;19.99;47.20
12215;BME280;6170;42.206;24.142;2023-03-24T13:45:00;98619.69;;;20.03;47.41
12215;BME280;6170;42.206;24.142;2023-03-24T13:47:46;98630.59;;;20.13;48.24
12215;BME280;6170;42.206;24.142;2023-03-24T13:50:15;98609.34;;;19.95;48.46
12215;BME280;6170;42.206;24.142;2023-03-24T13:52:47;98613.63;;;19.81;47.96
12215;BME280;6170;42.206;24.142;2023-03-24T13:55:20;98631.13;;;20.15;49.00
12215;BME280;6170;42.206;24.142;2023-03-24T13:57:53;98598.94;;;19.77;47.61
12215;BME280;6170;42.206;24.142;2023-03-24T14:00:22;98603.31;;;19.88;47.51
12215;BME280;6170;42.206;24.142;2023-03-24T14:02:51;98596.53;;;19.90;47.96
12215;BME280;6170;42.206;24.142;2023-03-24T14:05:31;98578.28;;;19.81;47.43
12215;BME280;6170;42.206;24.142;2023-03-24T14:08:16;98590.78;;;19.82;46.00
12215;BME280;6170;42.206;24.142;2023-03-24T14:10:48;98590.00;;;19.96;46.07
12215;BME280;6170;42.206;24.142;2023-03-24T14:13:35;98587.81;;;19.88;44.04
12215;BME280;6170;42.206;24.142;2023-03-24T14:16:26;98631.94;;;20.10;46.41
12215;BME280;6170;42.206;24.142;2023-03-24T14:22:10;98562.72;;;19.66;45.14
12215;BME280;6170;42.206;24.142;2023-03-24T14:24:41;98583.75;;;19.86;44.67
12215;BME280;6170;42.206;24.142;2023-03-24T14:27:21;98577.78;;;19.94;44.19
12215;BME280;6170;42.206;24.142;2023-03-24T14:29:49;98578.28;;;19.81;45.16
12215;BME280;6170;42.206;24.142;2023-03-24T14:32:17;98578.25;;;19.76;44.89
12215;BME280;6170;42.206;24.142;2023-03-24T14:34:52;98573.63;;;19.71;43.55
12215;BME280;6170;42.206;24.142;2023-03-24T14:37:21;98569.56;;;19.79;44.51
12215;BME280;6170;42.206;24.142;2023-03-24T14:39:50;98578.03;;;19.82;45.14
12215;BME280;6170;42.206;24.142;2023-03-24T14:48:35;98576.88;;;19.68;44.08
12215;BME280;6170;42.206;24.142;2023-03-24T14:51:14;98572.53;;;19.72;43.44
12215;BME280;6170;42.206;24.142;2023-03-24T14:53:45;98563.53;;;19.66;43.13
12215;BME280;6170;42.206;24.142;2023-03-24T14:56:15;98559.97;;;19.61;44.36
12215;BME280;6170;42.206;24.142;2023-03-24T14:58:44;98559.69;;;19.57;44.54
12215;BME280;6170;42.206;24.142;2023-03-24T15:01:12;98543.81;;;19.39;43.59
12215;BME280;6170;42.206;24.142;2023-03-24T15:03:53;98565.97;;;19.63;44.91
12215;BME280;6170;42.206;24.142;2023-03-24T15:06:22;98567.75;;;19.37;45.17
12215;BME280;6170;42.206;24.142;2023-03-24T15:08:51;98559.94;;;19.46;44.49
12215;BME280;6170;42.206;24.142;2023-03-24T15:11:22;98560.44;;;19.43;44.65
12215;BME280;6170;42.206;24.142;2023-03-24T15:13:51;98563.19;;;19.48;43.41
12215;BME280;6170;42.206;24.142;2023-03-24T15:16:21;98555.09;;;19.58;44.61
12215;BME280;6170;42.206;24.142;2023-03-24T15:18:51;98561.38;;;19.68;43.90
12215;BME280;6170;42.206;24.142;2023-03-24T15:21:24;98564.63;;;19.70;44.10
12215;BME280;6170;42.206;24.142;2023-03-24T15:23:53;98558.63;;;19.58;43.98
12215;BME280;6170;42.206;24.142;2023-03-24T15:26:23;98550.84;;;19.25;43.64
12215;BME280;6170;42.206;24.142;2023-03-24T15:28:59;98564.97;;;19.27;43.41
12215;BME280;6170;42.206;24.142;2023-03-24T15:31:27;98559.53;;;19.27;43.92
12215;BME280;6170;42.206;24.142;2023-03-24T15:34:03;98565.56;;;19.39;44.30
12215;BME280;6170;42.206;24.142;2023-03-24T15:36:36;98603.22;;;19.62;45.13
12215;BME280;6170;42.206;24.142;2023-03-24T15:39:15;98556.28;;;19.30;44.86
12215;BME280;6170;42.206;24.142;2023-03-24T15:41:45;98550.22;;;19.13;45.01
12215;BME280;6170;42.206;24.142;2023-03-24T15:44:17;98561.59;;;19.10;45.47
12215;BME280;6170;42.206;24.142;2023-03-24T15:46:45;98563.84;;;19.23;45.59
12215;BME280;6170;42.206;24.142;2023-03-24T15:49:21;98556.69;;;19.02;46.67
12215;BME280;6170;42.206;24.142;2023-03-24T15:51:51;98560.69;;;18.94;47.14
12215;BME280;6170;42.206;24.142;2023-03-24T15:54:22;98565.06;;;19.00;46.97
12215;BME280;6170;42.206;24.142;2023-03-24T15:57:13;98590.03;;;18.97;46.98
12215;BME280;6170;42.206;24.142;2023-03-24T15:59:45;98571.69;;;18.77;47.78
12215;BME280;6170;42.206;24.142;2023-03-24T16:02:19;98558.94;;;18.46;48.14
12215;BME280;6170;42.206;24.142;2023-03-24T16:04:49;98565.75;;;18.49;48.44
12215;BME280;6170;42.206;24.142;2023-03-24T16:07:25;98571.19;;;18.49;48.33
12215;BME280;6170;42.206;24.142;2023-03-24T16:09:55;98554.06;;;18.16;49.04
12215;BME280;6170;42.206;24.142;2023-03-24T16:12:31;98578.50;;;17.94;48.83
12215;BME280;6170;42.206;24.142;2023-03-24T16:14:58;98579.13;;;18.02;49.79
12215;BME280;6170;42.206;24.142;2023-03-24T16:17:25;98611.22;;;18.10;50.17
12215;BME280;6170;42.206;24.142;2023-03-24T16:19:52;98568.75;;;17.72;50.32
12215;BME280;6170;42.206;24.142;2023-03-24T16:22:18;98583.50;;;17.59;51.15
12215;BME280;6170;42.206;24.142;2023-03-24T16:24:46;98579.03;;;17.48;50.26
12215;BME280;6170;42.206;24.142;2023-03-24T16:27:13;98582.72;;;17.42;50.75
12215;BME280;6170;42.206;24.142;2023-03-24T16:29:41;98589.28;;;17.46;50.77
12215;BME280;6170;42.206;24.142;2023-03-24T16:32:09;98553.75;;;17.04;50.93
12215;BME280;6170;42.206;24.142;2023-03-24T16:34:36;98619.69;;;17.31;52.13
12215;BME280;6170;42.206;24.142;2023-03-24T16:37:03;98576.44;;;16.98;52.97
12215;BME280;6170;42.206;24.142;2023-03-24T16:39:30;98587.19;;;16.93;53.12
12215;BME280;6170;42.206;24.142;2023-03-24T16:41:57;98595.41;;;16.81;53.32
12215;BME280;6170;42.206;24.142;2023-03-24T16:44:25;98574.75;;;16.58;54.37
12215;BME280;6170;42.206;24.142;2023-03-24T16:46:54;98599.28;;;16.57;55.08
12215;BME280;6170;42.206;24.142;2023-03-24T16:49:21;98595.34;;;16.48;56.16
12215;BME280;6170;42.206;24.142;2023-03-24T16:51:49;98587.22;;;16.31;57.37
12215;BME280;6170;42.206;24.142;2023-03-24T16:54:17;98600.88;;;16.25;58.09
12215;BME280;6170;42.206;24.142;2023-03-24T16:56:44;98589.19;;;16.19;58.27
12215;BME280;6170;42.206;24.142;2023-03-24T16:59:11;98590.03;;;16.08;58.86
12215;BME280;6170;42.206;24.142;2023-03-24T17:01:41;98583.06;;;15.95;59.72
12215;BME280;6170;42.206;24.142;2023-03-24T17:04:13;98586.88;;;15.83;61.00
12215;BME280;6170;42.206;24.142;2023-03-24T17:06:42;98585.44;;;15.52;61.63
12215;BME280;6170;42.206;24.142;2023-03-24T17:09:11;98603.53;;;15.40;63.47
12215;BME280;6170;42.206;24.142;2023-03-24T17:11:40;98587.09;;;15.29;63.68
12215;BME280;6170;42.206;24.142;2023-03-24T17:14:08;98592.75;;;15.16;65.55
12215;BME280;6170;42.206;24.142;2023-03-24T17:16:38;98586.16;;;15.01;64.91
12215;BME280;6170;42.206;24.142;2023-03-24T17:19:08;98590.19;;;14.87;65.38
12215;BME280;6170;42.206;24.142;2023-03-24T17:21:38;98590.50;;;14.55;65.69
12215;BME280;6170;42.206;24.142;2023-03-24T17:24:08;98633.78;;;14.72;67.03
12215;BME280;6170;42.206;24.142;2023-03-24T17:26:35;98612.38;;;14.47;67.08
12215;BME280;6170;42.206;24.142;2023-03-24T17:29:02;98598.50;;;14.32;67.32
12215;BME280;6170;42.206;24.142;2023-03-24T17:31:30;98610.94;;;14.33;66.89
12215;BME280;6170;42.206;24.142;2023-03-24T17:33:57;98606.94;;;14.24;66.73
12215;BME280;6170;42.206;24.142;2023-03-24T17:36:24;98607.94;;;14.11;67.22
12215;BME280;6170;42.206;24.142;2023-03-24T17:38:53;98630.69;;;14.15;67.27
12215;BME280;6170;42.206;24.142;2023-03-24T17:41:20;98618.66;;;14.00;67.25
12215;BME280;6170;42.206;24.142;2023-03-24T17:43:46;98626.19;;;14.09;66.08
12215;BME280;6170;42.206;24.142;2023-03-24T17:46:13;98630.53;;;14.10;66.17
12215;BME280;6170;42.206;24.142;2023-03-24T17:48:40;98628.34;;;14.19;65.60
12215;BME280;6170;42.206;24.142;2023-03-24T17:51:07;98631.88;;;14.19;65.77
12215;BME280;6170;42.206;24.142;2023-03-24T17:53:34;98629.44;;;14.00;66.42
12215;BME280;6170;42.206;24.142;2023-03-24T17:56:03;98617.63;;;14.01;66.35
12215;BME280;6170;42.206;24.142;2023-03-24T17:58:33;98628.09;;;13.90;67.16
12215;BME280;6170;42.206;24.142;2023-03-24T18:01:01;98631.13;;;13.64;67.59
12215;BME280;6170;42.206;24.142;2023-03-24T18:03:31;98645.03;;;13.79;67.23
12215;BME280;6170;42.206;24.142;2023-03-24T18:06:04;98626.66;;;13.58;67.24
12215;BME280;6170;42.206;24.142;2023-03-24T18:08:31;98643.47;;;13.72;67.19
12215;BME280;6170;42.206;24.142;2023-03-24T18:11:03;98681.44;;;13.64;67.59
12215;BME280;6170;42.206;24.142;2023-03-24T18:13:31;98645.13;;;13.36;67.83
12215;BME280;6170;42.206;24.142;2023-03-24T18:15:58;98644.72;;;13.15;68.57
12215;BME280;6170;42.206;24.142;2023-03-24T18:18:25;98622.19;;;13.09;68.21
12215;BME280;6170;42.206;24.142;2023-03-24T18:20:52;98628.50;;;13.21;68.09
12215;BME280;6170;42.206;24.142;2023-03-24T18:23:20;98639.44;;;13.26;68.05
12215;BME280;6170;42.206;24.142;2023-03-24T18:25:47;98648.47;;;13.14;68.41
12215;BME280;6170;42.206;24.142;2023-03-24T18:28:23;98653.84;;;13.14;68.14
12215;BME280;6170;42.206;24.142;2023-03-24T18:30:50;98652.72;;;13.21;67.70
12215;BME280;6170;42.206;24.142;2023-03-24T18:33:17;98654.00;;;13.37;67.21
12215;BME280;6170;42.206;24.142;2023-03-24T18:35:48;98651.41;;;13.30;66.87
12215;BME280;6170;42.206;24.142;2023-03-24T18:38:15;98658.16;;;13.15;66.68
12215;BME280;6170;42.206;24.142;2023-03-24T18:40:47;98664.78;;;13.19;66.96
12215;BME280;6170;42.206;24.142;2023-03-24T18:43:14;98665.22;;;12.84;67.70
12215;BME280;6170;42.206;24.142;2023-03-24T18:45:42;98666.34;;;12.77;68.23
12215;BME280;6170;42.206;24.142;2023-03-24T18:48:09;98669.63;;;12.79;68.37
12215;BME280;6170;42.206;24.142;2023-03-24T18:50:38;98660.22;;;12.88;68.65
12215;BME280;6170;42.206;24.142;2023-03-24T18:53:05;98667.91;;;12.84;68.35
12215;BME280;6170;42.206;24.142;2023-03-24T18:55:32;98650.97;;;12.59;68.70
12215;BME280;6170;42.206;24.142;2023-03-24T18:57:59;98667.00;;;12.72;68.69
12215;BME280;6170;42.206;24.142;2023-03-24T19:00:26;98675.41;;;12.82;68.79
12215;BME280;6170;42.206;24.142;2023-03-24T19:02:54;98688.72;;;12.95;69.01
12215;BME280;6170;42.206;24.142;2023-03-24T19:05:22;98650.19;;;12.77;68.69
12215;BME280;6170;42.206;24.142;2023-03-24T19:07:48;98668.69;;;12.67;69.02
12215;BME280;6170;42.206;24.142;2023-03-24T19:10:16;98676.31;;;12.70;69.00
12215;BME280;6170;42.206;24.142;2023-03-24T19:12:43;98676.00;;;12.53;69.05
12215;BME280;6170;42.206;24.142;2023-03-24T19:15:10;98676.41;;;12.56;69.75
12215;BME280;6170;42.206;24.142;2023-03-24T19:17:38;98679.03;;;12.63;69.14
12215;BME280;6170;42.206;24.142;2023-03-24T19:20:08;98676.97;;;12.65;69.34
12215;BME280;6170;42.206;24.142;2023-03-24T19:22:35;98650.78;;;12.54;69.52
12215;BME280;6170;42.206;24.142;2023-03-24T19:25:05;98668.19;;;12.51;68.97
12215;BME280;6170;42.206;24.142;2023-03-24T19:27:32;98676.00;;;12.53;68.91
12215;BME280;6170;42.206;24.142;2023-03-24T19:29:59;98674.63;;;12.44;69.50
12215;BME280;6170;42.206;24.142;2023-03-24T19:32:29;98666.59;;;11.99;70.04
12215;BME280;6170;42.206;24.142;2023-03-24T19:34:56;98675.94;;;11.97;70.13
12215;BME280;6170;42.206;24.142;2023-03-24T19:37:24;98666.03;;;11.97;70.17
12215;BME280;6170;42.206;24.142;2023-03-24T19:39:52;98674.59;;;11.61;70.52
12215;BME280;6170;42.206;24.142;2023-03-24T19:42:19;98670.75;;;11.95;70.57
12215;BME280;6170;42.206;24.142;2023-03-24T19:44:47;98670.81;;;11.89;70.10
12215;BME280;6170;42.206;24.142;2023-03-24T19:47:14;98671.19;;;11.92;70.13
12215;BME280;6170;42.206;24.142;2023-03-24T19:49:41;98668.75;;;11.84;70.14
12215;BME280;6170;42.206;24.142;2023-03-24T19:52:08;98668.00;;;11.51;71.33
12215;BME280;6170;42.206;24.142;2023-03-24T19:54:37;98671.91;;;11.68;71.13
12215;BME280;6170;42.206;24.142;2023-03-24T19:57:04;98665.72;;;11.67;70.73
12215;BME280;6170;42.206;24.142;2023-03-24T19:59:31;98674.63;;;11.55;72.04
12215;BME280;6170;42.206;24.142;2023-03-24T20:01:59;98637.09;;;11.42;71.02
12215;BME280;6170;42.206;24.142;2023-03-24T20:04:26;98670.88;;;11.76;71.18
12215;BME280;6170;42.206;24.142;2023-03-24T20:06:53;98672.66;;;11.95;70.81
12215;BME280;6170;42.206;24.142;2023-03-24T20:09:20;98659.44;;;11.93;70.02
12215;BME280;6170;42.206;24.142;2023-03-24T20:11:50;98676.50;;;12.05;70.02
12215;BME280;6170;42.206;24.142;2023-03-24T20:14:17;98671.19;;;11.99;69.76
12215;BME280;6170;42.206;24.142;2023-03-24T20:16:44;98665.97;;;12.04;69.67
12215;BME280;6170;42.206;24.142;2023-03-24T20:19:11;98673.22;;;12.03;69.49
12215;BME280;6170;42.206;24.142;2023-03-24T20:21:38;98670.81;;;11.82;70.27
12215;BME280;6170;42.206;24.142;2023-03-24T20:24:06;98664.63;;;11.82;70.66
12215;BME280;6170;42.206;24.142;2023-03-24T20:26:33;98661.16;;;11.81;70.14
12215;BME280;6170;42.206;24.142;2023-03-24T20:29:02;98661.16;;;11.75;70.79
12215;BME280;6170;42.206;24.142;2023-03-24T20:31:29;98650.47;;;11.55;71.22
12215;BME280;6170;42.206;24.142;2023-03-24T20:33:56;98662.03;;;11.49;70.98
12215;BME280;6170;42.206;24.142;2023-03-24T20:36:23;98681.09;;;11.27;72.89
12215;BME280;6170;42.206;24.142;2023-03-24T20:38:50;98655.94;;;11.09;73.46
12215;BME280;6170;42.206;24.142;2023-03-24T20:41:17;98649.78;;;10.95;73.13
12215;BME280;6170;42.206;24.142;2023-03-24T20:43:46;98650.59;;;10.89;73.49
12215;BME280;6170;42.206;24.142;2023-03-24T20:46:16;98644.03;;;10.65;74.17
12215;BME280;6170;42.206;24.142;2023-03-24T20:48:43;98653.28;;;10.63;73.98
12215;BME280;6170;42.206;24.142;2023-03-24T20:51:11;98644.41;;;10.49;74.13
12215;BME280;6170;42.206;24.142;2023-03-24T20:53:38;98648.94;;;10.35;75.04
12215;BME280;6170;42.206;24.142;2023-03-24T20:56:08;98657.03;;;9.88;76.36
12215;BME280;6170;42.206;24.142;2023-03-24T20:58:37;98665.41;;;9.72;76.58
12215;BME280;6170;42.206;24.142;2023-03-24T21:01:06;98638.53;;;8.49;79.92
12215;BME280;6170;42.206;24.142;2023-03-24T21:03:35;98638.69;;;8.47;81.14
12215;BME280;6170;42.206;24.142;2023-03-24T21:06:03;98656.44;;;8.83;80.95
12215;BME280;6170;42.206;24.142;2023-03-24T21:08:30;98654.94;;;9.01;80.21
12215;BME280;6170;42.206;24.142;2023-03-24T21:10:58;98647.19;;;9.13;79.67
12215;BME280;6170;42.206;24.142;2023-03-24T21:13:25;98657.88;;;9.13;79.35
12215;BME280;6170;42.206;24.142;2023-03-24T21:15:52;98652.31;;;9.08;79.45
12215;BME280;6170;42.206;24.142;2023-03-24T21:18:19;98668.47;;;9.28;79.47
12215;BME280;6170;42.206;24.142;2023-03-24T21:20:51;98661.28;;;9.28;79.26
12215;BME280;6170;42.206;24.142;2023-03-24T21:23:20;98655.34;;;9.33;79.44
12215;BME280;6170;42.206;24.142;2023-03-24T21:25:47;98660.69;;;9.33;79.29
12215;BME280;6170;42.206;24.142;2023-03-24T21:28:15;98663.78;;;9.36;79.26
12215;BME280;6170;42.206;24.142;2023-03-24T21:30:43;98657.66;;;9.42;79.40
12215;BME280;6170;42.206;24.142;2023-03-24T21:33:11;98631.63;;;9.23;79.04
12215;BME280;6170;42.206;24.142;2023-03-24T21:35:39;98660.34;;;9.42;78.21
12215;BME280;6170;42.206;24.142;2023-03-24T21:38:08;98665.00;;;8.50;80.35
12215;BME280;6170;42.206;24.142;2023-03-24T21:40:35;98682.28;;;8.54;81.50
12215;BME280;6170;42.206;24.142;2023-03-24T21:43:02;98666.09;;;8.56;81.22
12215;BME280;6170;42.206;24.142;2023-03-24T21:45:31;98668.69;;;8.71;81.46
12215;BME280;6170;42.206;24.142;2023-03-24T21:48:00;98658.63;;;8.73;80.76
12215;BME280;6170;42.206;24.142;2023-03-24T21:50:30;98648.97;;;8.72;81.24
12215;BME280;6170;42.206;24.142;2023-03-24T21:53:00;98654.84;;;8.88;80.40
12215;BME280;6170;42.206;24.142;2023-03-24T21:55:32;98661.13;;;9.02;79.81
12215;BME280;6170;42.206;24.142;2023-03-24T21:57:59;98654.22;;;9.14;79.36
12215;BME280;6170;42.206;24.142;2023-03-24T22:00:26;98647.91;;;9.28;79.43
12215;BME280;6170;42.206;24.142;2023-03-24T22:02:54;98644.44;;;9.34;78.71
12215;BME280;6170;42.206;24.142;2023-03-24T22:05:23;98647.53;;;9.31;78.14
12215;BME280;6170;42.206;24.142;2023-03-24T22:07:52;98641.44;;;9.16;79.08
12215;BME280;6170;42.206;24.142;2023-03-24T22:10:20;98647.94;;;9.35;78.19
12215;BME280;6170;42.206;24.142;2023-03-24T22:12:49;98652.97;;;9.51;78.44
12215;BME280;6170;42.206;24.142;2023-03-24T22:15:17;98644.38;;;9.62;78.20
12215;BME280;6170;42.206;24.142;2023-03-24T22:17:44;98658.16;;;9.66;77.71
12215;BME280;6170;42.206;24.142;2023-03-24T22:20:12;98642.34;;;9.71;77.38
12215;BME280;6170;42.206;24.142;2023-03-24T22:22:39;98641.09;;;9.60;77.41
12215;BME280;6170;42.206;24.142;2023-03-24T22:25:09;98635.94;;;9.59;78.01
12215;BME280;6170;42.206;24.142;2023-03-24T22:27:36;98637.47;;;9.40;78.09
12215;BME280;6170;42.206;24.142;2023-03-24T22:30:06;98643.75;;;9.19;79.49
12215;BME280;6170;42.206;24.142;2023-03-24T22:32:35;98635.81;;;9.39;78.82
12215;BME280;6170;42.206;24.142;2023-03-24T22:35:02;98631.91;;;9.35;78.34
12215;BME280;6170;42.206;24.142;2023-03-24T22:37:30;98634.03;;;9.53;78.06
12215;BME280;6170;42.206;24.142;2023-03-24T22:39:57;98649.47;;;9.51;77.88
12215;BME280;6170;42.206;24.142;2023-03-24T22:42:24;98640.03;;;9.61;77.55
12215;BME280;6170;42.206;24.142;2023-03-24T22:44:51;98640.91;;;9.75;76.98
12215;BME280;6170;42.206;24.142;2023-03-24T22:47:19;98634.97;;;9.73;76.44
12215;BME280;6170;42.206;24.142;2023-03-24T22:49:48;98639.91;;;9.82;76.54
12215;BME280;6170;42.206;24.142;2023-03-24T22:52:15;98641.56;;;9.83;76.54
12215;BME280;6170;42.206;24.142;2023-03-24T22:54:42;98630.09;;;10.03;75.43
12215;BME280;6170;42.206;24.142;2023-03-24T22:57:09;98637.50;;;10.01;75.43
12215;BME280;6170;42.206;24.142;2023-03-24T22:59:36;98639.97;;;9.96;75.32
12215;BME280;6170;42.206;24.142;2023-03-24T23:02:03;98640.34;;;9.86;75.27
12215;BME280;6170;42.206;24.142;2023-03-24T23:04:31;98649.19;;;9.80;75.49
12215;BME280;6170;42.206;24.142;2023-03-24T23:06:58;98616.84;;;9.68;75.53
12215;BME280;6170;42.206;24.142;2023-03-24T23:09:25;98612.69;;;9.59;75.70
12215;BME280;6170;42.206;24.142;2023-03-24T23:11:53;98632.53;;;9.84;75.64
12215;BME280;6170;42.206;24.142;2023-03-24T23:14:20;98633.53;;;9.83;75.51
12215;BME280;6170;42.206;24.142;2023-03-24T23:16:49;98622.38;;;9.67;75.62
12215;BME280;6170;42.206;24.142;2023-03-24T23:19:18;98631.47;;;9.79;75.36
12215;BME280;6170;42.206;24.142;2023-03-24T23:21:47;98620.44;;;9.47;76.49
12215;BME280;6170;42.206;24.142;2023-03-24T23:24:13;98599.28;;;9.53;76.27
12215;BME280;6170;42.206;24.142;2023-03-24T23:26:40;98623.59;;;9.64;75.95
12215;BME280;6170;42.206;24.142;2023-03-24T23:29:07;98622.97;;;9.15;77.12